Time;durP1;ratioP1;P1;durP2;ratioP2;P2;SDS_P1;SDS_P2;PMS_P1;PMS_P2;Temp;Humidity;BMP_temperature;BMP_pressure;BME280_temperature;BME280_humidity;BME280_pressure;Samples;Min_cycle;Max_cycle;Signal;HPM_P1;HPM_P2
2021/09/08 00:01:50;;;;;;;1.27;0.85;;;;;;;20.29;51.00;101694.00;5075952;28;20027;-60
2021/09/08 00:04:15;;;;;;;1.63;0.63;;;;;;;20.27;50.83;101693.31;5060992;28;20381;-61
2021/09/08 00:06:41;;;;;;;0.80;0.70;;;;;;;20.17;50.77;101692.59;5037612;28;20028;-61
2021/09/08 00:09:06;;;;;;;0.85;0.70;;;;;;;20.28;51.29;101692.28;5055184;28;20412;-60
2021/09/08 00:11:31;;;;;;;0.60;0.60;;;;;;;20.22;50.87;101689.38;5055444;28;20032;-60
2021/09/08 00:13:56;;;;;;;1.10;0.80;;;;;;;20.22;51.40;101682.03;5055031;28;20420;-61
2021/09/08 00:16:22;;;;;;;1.23;0.88;;;;;;;20.30;51.11;101678.47;5055203;28;20429;-61
2021/09/08 00:18:47;;;;;;;1.23;0.80;;;;;;;20.26;51.28;101679.81;5055348;28;20029;-61
2021/09/08 00:21:12;;;;;;;1.10;0.80;;;;;;;20.27;50.88;101692.44;5055285;28;20028;-60
2021/09/08 00:23:38;;;;;;;0.68;0.55;;;;;;;20.26;50.47;101688.88;5054729;28;20486;-61
2021/09/08 00:26:03;;;;;;;1.05;0.82;;;;;;;20.25;51.01;101691.75;5055164;28;20070;-60
2021/09/08 00:28:29;;;;;;;1.48;0.88;;;;;;;20.18;50.73;101685.25;5055306;28;20500;-61
2021/09/08 00:30:54;;;;;;;1.13;0.63;;;;;;;20.17;51.32;101686.28;5037117;28;20454;-61
2021/09/08 00:33:19;;;;;;;0.85;0.60;;;;;;;20.18;50.99;101686.09;5037130;28;20482;-60
2021/09/08 00:35:45;;;;;;;1.30;0.90;;;;;;;20.17;51.08;101678.94;5054889;28;20029;-61
2021/09/08 00:38:11;;;;;;;2.35;1.00;;;;;;;20.17;51.14;101678.09;5055013;28;20031;-60
2021/09/08 00:40:38;;;;;;;0.85;0.65;;;;;;;20.14;50.75;101673.78;5054542;28;20021;-61
2021/09/08 00:43:03;;;;;;;0.88;0.57;;;;;;;20.19;51.38;101670.59;5054820;28;20028;-61
2021/09/08 00:45:28;;;;;;;1.95;0.68;;;;;;;20.26;52.50;101666.16;5054511;28;20049;-60
2021/09/08 00:47:54;;;;;;;0.88;0.82;;;;;;;20.20;52.22;101667.69;5054692;28;20388;-61
2021/09/08 00:50:19;;;;;;;1.08;0.90;;;;;;;20.18;51.22;101660.69;5054447;28;20148;-61
2021/09/08 00:52:47;;;;;;;0.70;0.70;;;;;;;20.10;51.59;101662.34;5054501;28;20021;-61
2021/09/08 00:55:12;;;;;;;0.77;0.77;;;;;;;20.12;52.33;101673.94;5054687;28;20033;-60
2021/09/08 00:57:39;;;;;;;1.17;0.95;;;;;;;20.14;51.17;101663.72;5054702;28;20032;-60
2021/09/08 01:00:06;;;;;;;0.75;0.63;;;;;;;20.12;50.97;101662.16;5054075;28;20071;-61
2021/09/08 01:02:31;;;;;;;0.60;0.60;;;;;;;20.14;50.81;101660.13;5054593;28;20028;-62
2021/09/08 01:04:57;;;;;;;0.95;0.70;;;;;;;20.07;51.57;101668.13;5054129;28;20112;-60
2021/09/08 01:07:23;;;;;;;1.27;0.77;;;;;;;20.10;50.82;101656.88;5054246;28;20032;-61
2021/09/08 01:09:48;;;;;;;1.00;0.77;;;;;;;20.12;51.33;101664.91;5054542;28;20052;-62
2021/09/08 01:12:14;;;;;;;1.33;0.90;;;;;;;20.15;52.42;101659.09;5054147;28;20021;-61
2021/09/08 01:14:42;;;;;;;1.23;0.93;;;;;;;20.12;51.13;101663.03;5054389;28;20052;-61
2021/09/08 01:17:07;;;;;;;0.75;0.70;;;;;;;20.10;51.57;101654.16;5053798;28;20043;-59
2021/09/08 01:19:32;;;;;;;1.55;0.93;;;;;;;20.07;51.24;101657.22;5054194;28;20585;-63
2021/09/08 01:21:58;;;;;;;0.80;0.60;;;;;;;20.10;52.85;101656.88;5054046;28;20377;-61
2021/09/08 01:24:23;;;;;;;1.33;0.82;;;;;;;20.04;53.55;101657.53;5053678;28;20049;-60
2021/09/08 01:26:50;;;;;;;1.10;0.70;;;;;;;20.03;51.46;101655.84;5054181;28;20036;-61
2021/09/08 01:29:15;;;;;;;1.05;0.75;;;;;;;20.10;53.36;101645.97;5053940;28;20025;-61
2021/09/08 01:31:41;;;;;;;2.67;1.25;;;;;;;20.02;51.30;101640.47;5053724;28;20104;-61
2021/09/08 01:34:07;;;;;;;0.93;0.82;;;;;;;20.00;51.78;101650.72;5053856;28;20013;-60
2021/09/08 01:36:39;;;;;;;1.45;0.75;;;;;;;19.99;51.43;101632.63;5053277;28;20514;-61
2021/09/08 01:39:05;;;;;;;0.70;0.70;;;;;;;20.02;52.50;101637.75;5053700;28;20485;-61
2021/09/08 01:41:31;;;;;;;0.90;0.60;;;;;;;20.12;52.02;101638.47;5053724;28;20028;-61
2021/09/08 01:43:56;;;;;;;0.80;0.63;;;;;;;20.08;52.77;101626.16;5053307;28;20049;-61
2021/09/08 01:46:23;;;;;;;0.75;0.60;;;;;;;20.09;51.01;101630.59;5053555;28;20115;-59
2021/09/08 01:48:49;;;;;;;1.48;0.90;;;;;;;20.11;51.71;101631.28;5053508;28;20549;-62
2021/09/08 01:51:15;;;;;;;1.33;0.93;;;;;;;20.03;51.32;101630.41;5053334;28;20132;-61
2021/09/08 01:53:41;;;;;;;0.65;0.65;;;;;;;20.02;51.24;101631.44;5035429;28;20028;-62
2021/09/08 01:56:06;;;;;;;1.05;0.93;;;;;;;20.09;51.46;101619.69;5053408;28;20033;-61
2021/09/08 01:58:31;;;;;;;0.73;0.70;;;;;;;20.03;52.10;101628.53;5053535;28;20025;-60
2021/09/08 02:00:57;;;;;;;1.00;0.68;;;;;;;20.04;51.70;101613.88;5053182;28;20049;-62
2021/09/08 02:03:23;;;;;;;0.80;0.63;;;;;;;20.03;51.71;101606.69;5053321;28;20025;-61
2021/09/08 02:05:48;;;;;;;1.23;0.68;;;;;;;20.00;52.13;101617.94;5061776;28;20023;-60
2021/09/08 02:08:15;;;;;;;0.68;0.68;;;;;;;20.05;53.05;101614.72;5071855;28;20112;-61
2021/09/08 02:10:40;;;;;;;0.95;0.60;;;;;;;19.96;51.11;101613.81;5053183;28;20025;-61
2021/09/08 02:13:06;;;;;;;0.52;0.50;;;;;;;19.98;52.01;101619.97;5052927;28;20408;-62
2021/09/08 02:15:32;;;;;;;1.17;0.68;;;;;;;19.98;51.65;101609.03;5053218;28;20469;-62
2021/09/08 02:17:57;;;;;;;1.20;0.80;;;;;;;19.97;51.43;101607.34;5052811;28;20377;-60
2021/09/08 02:20:23;;;;;;;0.55;0.50;;;;;;;20.01;53.26;101608.75;5053268;28;20063;-62
2021/09/08 02:22:48;;;;;;;0.40;0.40;;;;;;;19.92;51.34;101615.16;5052775;28;20029;-61
2021/09/08 02:25:13;;;;;;;1.38;0.63;;;;;;;19.98;52.05;101609.03;5053028;28;20649;-61
2021/09/08 02:27:39;;;;;;;0.63;0.60;;;;;;;19.97;51.19;101604.59;5052814;28;20039;-62
2021/09/08 02:30:05;;;;;;;1.02;0.70;;;;;;;19.94;51.69;101601.34;5052876;28;20028;-61
2021/09/08 02:32:31;;;;;;;1.25;0.70;;;;;;;19.90;51.60;101600.84;5052586;28;20021;-62
2021/09/08 02:34:56;;;;;;;1.08;0.68;;;;;;;19.98;51.43;101598.13;5052620;28;20496;-62
2021/09/08 02:37:22;;;;;;;1.23;0.40;;;;;;;19.93;50.90;101594.19;5053020;28;20025;-61
2021/09/08 02:39:47;;;;;;;0.82;0.60;;;;;;;19.97;50.83;101590.97;5052991;28;20399;-61
2021/09/08 02:42:13;;;;;;;1.15;0.60;;;;;;;19.95;51.18;101593.00;5052445;28;20032;-61
2021/09/08 02:44:39;;;;;;;0.90;0.50;;;;;;;19.95;51.07;101598.47;5052657;28;20045;-62
2021/09/08 02:47:04;;;;;;;0.50;0.50;;;;;;;19.94;51.24;101591.28;5053003;28;20389;-60
2021/09/08 02:49:29;;;;;;;0.75;0.75;;;;;;;19.89;51.54;101584.63;5056928;28;20020;-61
2021/09/08 02:51:55;;;;;;;0.68;0.65;;;;;;;19.95;52.10;101549.34;5056856;28;20027;-61
2021/09/08 02:54:20;;;;;;;0.90;0.60;;;;;;;19.98;53.98;101515.41;5056949;28;20032;-62
2021/09/08 02:56:45;;;;;;;0.93;0.47;;;;;;;19.92;52.28;101522.38;5056537;28;20017;-61
2021/09/08 02:59:11;;;;;;;0.50;0.50;;;;;;;19.99;53.16;101526.19;5056663;28;20025;-60
2021/09/08 03:01:36;;;;;;;0.70;0.43;;;;;;;20.03;51.42;101578.56;5056510;28;20032;-62
2021/09/08 03:04:01;;;;;;;1.13;0.57;;;;;;;19.93;54.18;101565.03;5056728;28;20024;-60
2021/09/08 03:06:27;;;;;;;0.77;0.63;;;;;;;19.87;50.85;101576.59;5056543;28;20040;-61
2021/09/08 03:08:52;;;;;;;0.93;0.63;;;;;;;19.85;51.79;101569.59;5056539;28;20040;-61
2021/09/08 03:11:17;;;;;;;0.63;0.40;;;;;;;19.88;52.24;101564.66;5056545;28;20032;-61
2021/09/08 03:13:43;;;;;;;0.73;0.50;;;;;;;19.91;51.19;101542.50;5056676;28;20540;-62
2021/09/08 03:16:08;;;;;;;0.70;0.50;;;;;;;19.91;52.83;101547.97;5056062;28;20028;-61
2021/09/08 03:18:33;;;;;;;0.68;0.68;;;;;;;19.96;53.19;101550.19;5056915;28;20017;-61
2021/09/08 03:20:59;;;;;;;0.45;0.45;;;;;;;19.86;50.41;101546.75;5056242;28;20028;-62
2021/09/08 03:23:24;;;;;;;1.67;0.60;;;;;;;19.88;52.13;101531.94;5056318;28;20025;-61
2021/09/08 03:25:49;;;;;;;0.28;0.28;;;;;;;19.93;52.17;101534.16;5056191;28;20028;-62
2021/09/08 03:28:15;;;;;;;1.52;0.50;;;;;;;19.93;52.35;101537.72;5056289;28;20036;-60
2021/09/08 03:30:40;;;;;;;1.17;0.35;;;;;;;19.87;51.92;101524.75;5056038;28;20518;-61
2021/09/08 03:33:06;;;;;;;1.75;0.50;;;;;;;19.96;54.27;101523.75;5056078;28;20061;-61
2021/09/08 03:35:32;;;;;;;0.22;0.22;;;;;;;19.96;54.67;101518.28;5056033;28;20029;-61
2021/09/08 03:37:57;;;;;;;1.67;0.50;;;;;;;19.89;52.70;101508.22;5055893;28;20024;-62
2021/09/08 03:40:23;;;;;;;0.30;0.30;;;;;;;19.88;50.80;101510.09;5056254;28;20484;-61
2021/09/08 03:42:48;;;;;;;0.63;0.20;;;;;;;19.90;53.11;101508.06;5056016;28;20501;-62
2021/09/08 03:45:14;;;;;;;0.52;0.43;;;;;;;19.88;54.29;101514.69;5055671;28;20068;-61
2021/09/08 03:47:41;;;;;;;0.47;0.30;;;;;;;19.87;54.98;101502.94;5055768;28;20025;-61
2021/09/08 03:50:07;;;;;;;0.70;0.50;;;;;;;19.78;52.10;101507.50;5055357;28;20040;-62
2021/09/08 03:52:33;;;;;;;0.28;0.28;;;;;;;19.87;53.20;101513.00;5055947;28;20025;-61
2021/09/08 03:54:58;;;;;;;0.60;0.28;;;;;;;19.86;55.51;101517.59;5055536;28;20108;-62
2021/09/08 03:57:23;;;;;;;0.25;0.17;;;;;;;19.82;51.64;101510.78;5055598;28;20508;-61
2021/09/08 03:59:49;;;;;;;1.23;0.22;;;;;;;19.92;56.66;101511.47;5054972;28;20029;-62
2021/09/08 04:02:14;;;;;;;0.60;0.35;;;;;;;19.89;53.66;101510.94;5055615;28;20025;-61
2021/09/08 04:04:40;;;;;;;0.20;0.10;;;;;;;19.94;50.30;101503.97;5055727;28;20044;-62
2021/09/08 04:07:06;;;;;;;0.60;0.20;;;;;;;20.04;50.75;101496.50;5055257;28;20112;-61
2021/09/08 04:09:31;;;;;;;0.20;0.20;;;;;;;20.08;50.68;101506.06;5055138;28;20465;-61
2021/09/08 04:11:57;;;;;;;0.30;0.20;;;;;;;20.12;49.83;101504.69;5069259;28;20018;-62
2021/09/08 04:14:22;;;;;;;0.73;0.30;;;;;;;20.16;50.64;101499.78;5068451;28;20033;-62
2021/09/08 04:16:47;;;;;;;0.30;0.10;;;;;;;20.23;49.44;101502.69;5055439;28;20036;-61
2021/09/08 04:19:13;;;;;;;0.85;0.20;;;;;;;20.29;49.82;101507.47;5055326;28;20503;-63
2021/09/08 04:21:38;;;;;;;0.47;0.28;;;;;;;20.32;50.08;101490.72;5055202;28;20044;-62
2021/09/08 04:24:04;;;;;;;0.30;0.20;;;;;;;20.39;49.24;101487.16;5054914;28;20543;-62
2021/09/08 04:26:29;;;;;;;1.02;0.20;;;;;;;20.36;49.82;101482.06;5055024;28;20028;-60
2021/09/08 04:28:54;;;;;;;0.63;0.13;;;;;;;20.45;49.32;101480.19;5055127;28;20095;-63
2021/09/08 04:31:19;;;;;;;0.17;0.17;;;;;;;20.49;50.06;101481.59;5054764;28;20490;-62
2021/09/08 04:33:45;;;;;;;0.28;0.22;;;;;;;20.55;49.67;101480.03;5055081;28;20033;-61
2021/09/08 04:36:10;;;;;;;1.23;0.40;;;;;;;20.52;49.62;101475.78;5055045;28;20016;-61
2021/09/08 04:38:38;;;;;;;0.15;0.00;;;;;;;20.57;51.30;101472.53;5054983;28;20039;-62
2021/09/08 04:41:03;;;;;;;0.10;0.10;;;;;;;20.56;49.11;101460.75;5054864;28;20096;-62
2021/09/08 04:43:28;;;;;;;0.65;0.10;;;;;;;20.57;50.23;101459.72;5054576;28;20113;-62
2021/09/08 04:45:55;;;;;;;0.43;0.20;;;;;;;20.61;49.81;101457.50;5054588;28;20055;-62
2021/09/08 04:48:20;;;;;;;0.20;0.10;;;;;;;20.65;50.29;101459.69;5054790;28;20070;-62
2021/09/08 04:50:46;;;;;;;0.10;0.10;;;;;;;20.71;50.56;101458.19;5054554;28;20021;-61
2021/09/08 04:53:11;;;;;;;0.55;0.10;;;;;;;20.68;49.89;101464.84;5054539;28;20071;-62
2021/09/08 04:55:37;;;;;;;0.30;0.20;;;;;;;20.76;49.81;101465.84;5054525;28;20100;-61
2021/09/08 04:58:02;;;;;;;0.63;0.10;;;;;;;20.81;52.45;101458.00;5036690;28;20051;-63
2021/09/08 05:00:27;;;;;;;0.55;0.10;;;;;;;20.73;50.59;101451.50;5054696;28;20036;-62
2021/09/08 05:02:53;;;;;;;0.10;0.10;;;;;;;20.80;49.71;101461.75;5054471;28;20470;-60
2021/09/08 05:05:18;;;;;;;0.68;0.20;;;;;;;20.83;50.03;101455.97;5054166;28;20462;-61
2021/09/08 05:07:43;;;;;;;0.20;0.10;;;;;;;20.88;50.31;101442.63;5054432;28;20079;-62
2021/09/08 05:10:09;;;;;;;0.73;0.28;;;;;;;20.88;50.22;101437.16;5053109;28;20025;-62
2021/09/08 05:12:36;;;;;;;0.60;0.30;;;;;;;20.92;49.73;101439.34;5053915;28;20066;-62
2021/09/08 05:15:02;;;;;;;0.50;0.30;;;;;;;20.90;50.35;101437.81;5054212;28;20052;-60
2021/09/08 05:17:27;;;;;;;0.20;0.10;;;;;;;20.90;50.32;101429.63;5054081;28;20056;-62
2021/09/08 05:19:53;;;;;;;0.43;0.10;;;;;;;20.92;50.20;101430.31;5054164;28;20017;-63
2021/09/08 05:22:18;;;;;;;0.93;0.10;;;;;;;20.94;49.59;101431.84;5054246;28;20028;-61
2021/09/08 05:24:43;;;;;;;1.02;0.10;;;;;;;20.88;50.17;101424.34;5053776;28;20033;-63
2021/09/08 05:27:10;;;;;;;0.20;0.13;;;;;;;20.96;49.47;101418.00;5036631;28;20509;-63
2021/09/08 05:29:36;;;;;;;0.30;0.00;;;;;;;20.97;50.16;101419.69;5052852;28;20469;-62
2021/09/08 05:32:01;;;;;;;0.10;0.00;;;;;;;20.94;50.08;101411.84;5053249;28;20025;-62
2021/09/08 05:34:27;;;;;;;0.10;0.10;;;;;;;21.00;50.12;101397.50;5053965;28;20037;-61
2021/09/08 05:36:52;;;;;;;0.65;0.20;;;;;;;21.07;52.31;101409.44;5053788;28;20017;-62
2021/09/08 05:39:17;;;;;;;0.45;0.05;;;;;;;20.99;50.08;101395.75;5053598;28;20027;-62
2021/09/08 05:41:43;;;;;;;0.15;0.03;;;;;;;21.00;49.68;101390.16;5053744;28;20037;-61
2021/09/08 05:44:08;;;;;;;0.17;0.13;;;;;;;21.05;51.07;101384.16;5053281;28;20048;-62
2021/09/08 05:46:33;;;;;;;0.60;0.10;;;;;;;21.04;50.72;101387.91;5053682;28;20575;-62
2021/09/08 05:49:02;;;;;;;0.38;0.10;;;;;;;21.08;50.11;101389.25;5035526;28;20032;-61
2021/09/08 05:51:27;;;;;;;0.10;0.10;;;;;;;21.07;50.49;101393.03;5053712;28;20108;-63
2021/09/08 05:53:52;;;;;;;0.75;0.20;;;;;;;21.09;49.90;101396.44;5053467;28;20112;-61
2021/09/08 05:56:18;;;;;;;0.45;0.10;;;;;;;21.03;50.51;101397.16;5035510;28;20079;-62
2021/09/08 05:58:43;;;;;;;0.20;0.20;;;;;;;21.13;50.78;101394.19;5053654;28;20099;-62
2021/09/08 06:01:09;;;;;;;0.40;0.10;;;;;;;21.15;50.43;101398.44;5053188;28;20458;-62
2021/09/08 06:03:34;;;;;;;0.57;0.10;;;;;;;21.15;50.82;101395.72;5053464;28;20039;-63
2021/09/08 06:05:59;;;;;;;0.52;0.10;;;;;;;21.12;50.53;101396.06;5053073;28;20028;-60
2021/09/08 06:08:25;;;;;;;0.32;0.10;;;;;;;21.13;50.31;101391.47;5061073;28;20039;-63
2021/09/08 06:10:50;;;;;;;0.10;0.10;;;;;;;21.13;50.30;101385.97;5064250;28;20028;-62
2021/09/08 06:13:16;;;;;;;0.65;0.10;;;;;;;21.16;50.10;101381.00;5055172;28;20067;-61
2021/09/08 06:15:42;;;;;;;0.57;0.10;;;;;;;21.20;51.47;101387.00;5057657;28;20029;-62
2021/09/08 06:18:08;;;;;;;0.25;0.20;;;;;;;21.17;50.37;101403.78;5060622;28;20028;-61
2021/09/08 06:20:33;;;;;;;0.38;0.10;;;;;;;21.17;50.14;101404.63;5083139;28;20071;-62
2021/09/08 06:22:59;;;;;;;0.22;0.17;;;;;;;21.20;50.25;101403.41;5053528;28;20013;-63
2021/09/08 06:25:24;;;;;;;0.00;0.00;;;;;;;21.17;50.28;101410.09;5036805;28;20362;-62
2021/09/08 06:27:50;;;;;;;0.20;0.10;;;;;;;21.19;50.62;101408.03;5056236;28;20461;-62
2021/09/08 06:30:15;;;;;;;0.17;0.10;;;;;;;21.19;50.54;101402.56;5064243;28;20445;-62
2021/09/08 06:32:41;;;;;;;0.10;0.08;;;;;;;21.21;50.75;101405.97;5054989;28;20562;-62
2021/09/08 06:35:07;;;;;;;0.20;0.10;;;;;;;21.18;50.55;101405.47;5071257;28;20035;-62
2021/09/08 06:37:32;;;;;;;0.40;0.20;;;;;;;21.24;50.15;101402.91;5061930;28;20025;-61
2021/09/08 06:39:57;;;;;;;0.30;0.10;;;;;;;21.21;50.37;101395.03;5052555;28;20378;-62
2021/09/08 06:42:23;;;;;;;0.32;0.10;;;;;;;21.23;50.37;101400.31;5064420;28;20552;-62
2021/09/08 06:44:52;;;;;;;0.10;0.10;;;;;;;21.18;50.21;101378.97;5065193;28;20056;-61
2021/09/08 06:47:21;;;;;;;0.20;0.20;;;;;;;21.24;50.58;101389.22;5052438;28;20103;-62
2021/09/08 06:49:48;;;;;;;0.55;0.13;;;;;;;21.21;50.79;101397.75;5055329;28;20021;-60
2021/09/08 06:52:14;;;;;;;0.20;0.10;;;;;;;21.26;50.82;101395.38;5059843;28;20067;-62
2021/09/08 06:54:39;;;;;;;0.10;0.00;;;;;;;21.30;50.59;101384.91;5072818;28;20445;-62
2021/09/08 06:57:05;;;;;;;0.40;0.10;;;;;;;21.29;50.60;101381.34;5057198;28;20024;-61
2021/09/08 06:59:30;;;;;;;0.73;0.10;;;;;;;21.30;50.58;101379.44;5050975;28;20029;-62
2021/09/08 07:01:55;;;;;;;0.30;0.10;;;;;;;21.34;50.42;101377.25;5036524;28;21653;-61
2021/09/08 07:04:21;;;;;;;0.50;0.10;;;;;;;21.27;50.31;101372.47;5067562;28;20082;-62
2021/09/08 07:06:46;;;;;;;0.20;0.08;;;;;;;21.30;50.33;101383.03;5071015;28;20035;-62
2021/09/08 07:09:11;;;;;;;0.20;0.20;;;;;;;21.28;50.93;101379.63;5061347;28;20144;-62
2021/09/08 07:11:37;;;;;;;0.30;0.15;;;;;;;21.33;50.41;101379.09;5057462;28;20024;-62
2021/09/08 07:14:03;;;;;;;0.30;0.10;;;;;;;21.29;50.23;101375.88;5057141;28;20220;-62
2021/09/08 07:16:29;;;;;;;0.40;0.10;;;;;;;21.31;49.93;101376.53;5052850;28;20064;-62
2021/09/08 07:18:54;;;;;;;0.25;0.25;;;;;;;21.22;50.21;101352.13;5052740;28;20534;-63
2021/09/08 07:21:20;;;;;;;0.40;0.15;;;;;;;21.28;50.69;101363.22;5057671;28;20057;-61
2021/09/08 07:23:45;;;;;;;0.20;0.20;;;;;;;21.29;50.27;101370.41;5052335;28;20032;-62
2021/09/08 07:26:10;;;;;;;0.80;0.20;;;;;;;21.28;50.18;101374.16;5054695;28;20033;-62
2021/09/08 07:28:36;;;;;;;2.78;0.20;;;;;;;21.33;50.55;101370.88;5052490;28;20021;-62
2021/09/08 07:31:01;;;;;;;1.10;0.10;;;;;;;21.38;50.66;101375.84;5063804;28;20396;-63
2021/09/08 07:33:27;;;;;;;0.13;0.10;;;;;;;21.37;50.79;101365.94;5069285;28;20020;-61
2021/09/08 07:35:52;;;;;;;0.30;0.10;;;;;;;21.38;50.22;101370.38;5062415;28;20108;-62
2021/09/08 07:38:19;;;;;;;0.17;0.10;;;;;;;21.40;50.15;101360.09;5056127;28;20060;-63
2021/09/08 07:40:45;;;;;;;0.88;0.20;;;;;;;21.29;50.69;101364.94;5055950;28;20032;-62
2021/09/08 07:43:11;;;;;;;0.20;0.10;;;;;;;21.35;50.67;101362.53;5072963;28;20021;-63
2021/09/08 07:45:37;;;;;;;0.30;0.13;;;;;;;21.35;51.00;101368.00;5075737;28;20052;-61
2021/09/08 07:48:03;;;;;;;0.40;0.20;;;;;;;21.32;50.81;101360.97;5063833;28;20462;-62
2021/09/08 07:50:28;;;;;;;1.00;0.50;;;;;;;21.36;50.94;101372.44;5071043;28;20028;-63
2021/09/08 07:52:54;;;;;;;0.55;0.20;;;;;;;21.32;51.61;101360.97;5066784;28;20435;-62
2021/09/08 07:55:19;;;;;;;0.10;0.05;;;;;;;21.24;51.53;101364.63;5055777;28;20087;-62
2021/09/08 07:57:44;;;;;;;0.13;0.10;;;;;;;21.13;50.11;101364.13;5055760;28;20032;-62
2021/09/08 08:00:11;;;;;;;0.60;0.20;;;;;;;21.13;50.26;101364.97;5055146;28;20029;-63
2021/09/08 08:02:50;;;;;;;0.45;0.10;;;;;;;21.05;48.73;101362.28;5055690;28;20053;-62
2021/09/08 08:05:16;;;;;;;0.95;0.30;;;;;;;20.97;48.58;101357.69;5055184;28;20032;-62
2021/09/08 08:07:43;;;;;;;0.10;0.10;;;;;;;20.93;48.95;101347.28;5055364;28;20074;-62
2021/09/08 08:10:09;;;;;;;0.20;0.10;;;;;;;20.96;48.36;101346.91;5055165;28;20096;-62
2021/09/08 08:12:34;;;;;;;0.20;0.10;;;;;;;20.93;48.08;101352.75;5055400;28;20104;-62
2021/09/08 08:15:00;;;;;;;0.15;0.15;;;;;;;20.94;48.55;101348.97;5054915;28;20111;-62
2021/09/08 08:17:26;;;;;;;0.30;0.15;;;;;;;20.93;48.11;101353.59;5056360;28;20108;-62
2021/09/08 08:19:51;;;;;;;0.10;0.10;;;;;;;20.99;48.72;101355.63;5055272;28;20096;-62
2021/09/08 08:22:17;;;;;;;0.30;0.20;;;;;;;20.97;48.73;101360.41;5057847;28;20044;-62
2021/09/08 08:24:42;;;;;;;0.00;0.00;;;;;;;20.98;48.63;101355.78;5061915;28;20028;-62
2021/09/08 08:27:16;;;;;;;0.30;0.20;;;;;;;20.95;48.22;101367.94;5077761;28;20088;-62
2021/09/08 08:29:41;;;;;;;0.73;0.30;;;;;;;20.94;49.15;101365.38;5057458;28;20028;-63
2021/09/08 08:32:07;;;;;;;0.57;0.10;;;;;;;20.92;48.95;101367.44;5062138;28;20054;-62
2021/09/08 08:34:32;;;;;;;0.10;0.10;;;;;;;20.98;48.85;101361.25;5074975;28;20029;-63
2021/09/08 08:36:58;;;;;;;0.38;0.10;;;;;;;20.93;48.21;101360.94;5071942;28;20033;-62
2021/09/08 08:39:23;;;;;;;0.30;0.10;;;;;;;20.93;49.06;101369.16;5054728;28;20032;-62
2021/09/08 08:41:48;;;;;;;0.35;0.05;;;;;;;20.98;49.20;101367.56;5058471;28;20025;-62
2021/09/08 08:44:21;;;;;;;0.98;0.20;;;;;;;20.94;48.66;101373.59;5054742;28;20040;-63
2021/09/08 08:46:47;;;;;;;0.85;0.20;;;;;;;20.94;48.37;101371.69;5057845;28;20584;-61
2021/09/08 08:49:12;;;;;;;0.40;0.10;;;;;;;21.00;50.43;101392.03;5058113;28;20112;-63
2021/09/08 08:51:37;;;;;;;0.20;0.10;;;;;;;20.91;48.32;101383.00;5059429;28;20681;-61
2021/09/08 08:54:03;;;;;;;0.43;0.40;;;;;;;20.93;49.82;101385.53;5067707;28;20484;-62
2021/09/08 08:56:28;;;;;;;1.45;0.40;;;;;;;20.96;49.47;101390.66;5055461;28;20025;-62
2021/09/08 08:58:54;;;;;;;0.52;0.15;;;;;;;21.01;51.49;101388.28;5053758;28;20021;-61
2021/09/08 09:01:25;;;;;;;0.10;0.10;;;;;;;20.99;49.34;101387.56;5050159;28;20021;-63
2021/09/08 09:04:06;;;;;;;0.00;0.00;;;;;;;20.91;49.34;101382.13;5040423;28;20054;-60
2021/09/08 09:06:35;;;;;;;0.30;0.10;;;;;;;20.96;48.98;101379.72;5034507;28;20041;-65
2021/09/08 09:09:10;;;;;;;0.15;0.10;;;;;;;20.93;49.16;101380.06;5035129;28;20014;-63
2021/09/08 09:11:37;;;;;;;0.68;0.10;;;;;;;20.97;50.00;101375.97;5050624;28;20025;-63
2021/09/08 09:14:04;;;;;;;0.30;0.30;;;;;;;20.98;49.42;101372.19;5051835;28;20021;-63
2021/09/08 09:16:30;;;;;;;0.22;0.10;;;;;;;20.95;49.68;101372.56;5044281;28;20032;-63
2021/09/08 09:18:56;;;;;;;0.82;0.40;;;;;;;20.92;48.63;101378.38;5054041;28;20465;-63
2021/09/08 09:21:24;;;;;;;0.32;0.20;;;;;;;20.95;48.64;101373.41;5046422;28;20079;-64
2021/09/08 09:23:53;;;;;;;1.27;0.10;;;;;;;20.94;49.16;101365.38;5033962;28;20021;-63
2021/09/08 09:26:31;;;;;;;0.32;0.03;;;;;;;20.95;49.44;101345.22;5040809;28;20017;-63
2021/09/08 09:29:16;;;;;;;0.20;0.03;;;;;;;20.97;50.02;101348.63;5050586;28;20033;-63
2021/09/08 09:31:54;;;;;;;0.63;0.15;;;;;;;20.89;48.95;101349.53;5035658;28;20025;-62
2021/09/08 09:34:21;;;;;;;0.30;0.20;;;;;;;20.92;49.74;101340.97;5034078;28;20033;-62
2021/09/08 09:36:55;;;;;;;0.77;0.00;;;;;;;20.94;49.17;101338.06;5033992;28;20480;-63
2021/09/08 09:39:22;;;;;;;0.20;0.13;;;;;;;20.95;49.54;101339.75;5034015;28;20033;-62
2021/09/08 09:41:47;;;;;;;0.45;0.10;;;;;;;20.95;49.30;101339.75;5033526;28;20137;-63
2021/09/08 09:44:14;;;;;;;0.20;0.10;;;;;;;20.91;49.58;101333.78;5046061;28;20132;-62
2021/09/08 09:46:45;;;;;;;0.10;0.10;;;;;;;20.93;49.25;101341.81;5053099;28;20433;-62
2021/09/08 09:49:12;;;;;;;1.10;0.30;;;;;;;20.89;48.84;101335.00;5053544;28;20418;-63
2021/09/08 09:51:39;;;;;;;0.45;0.00;;;;;;;20.91;48.79;101320.13;5050985;28;20064;-62
2021/09/08 09:54:04;;;;;;;0.68;0.13;;;;;;;20.91;49.39;101333.78;5051318;28;20039;-62
2021/09/08 09:56:29;;;;;;;0.55;0.30;;;;;;;20.81;49.12;101322.19;5052319;28;20017;-63
2021/09/08 09:58:55;;;;;;;0.00;0.00;;;;;;;20.90;49.33;101333.97;5039948;28;20021;-63
2021/09/08 10:01:20;;;;;;;0.30;0.10;;;;;;;20.98;50.00;101339.41;5049403;28;20409;-63
2021/09/08 10:03:46;;;;;;;0.77;0.45;;;;;;;20.93;48.46;101328.16;5058854;28;20027;-64
2021/09/08 10:06:13;;;;;;;0.57;0.10;;;;;;;20.93;48.66;101328.16;5052856;28;20104;-64
2021/09/08 10:08:49;;;;;;;0.08;0.03;;;;;;;20.87;48.68;101334.34;5053227;28;20036;-63
2021/09/08 10:11:19;;;;;;;0.00;0.00;;;;;;;20.90;49.44;101314.84;5052763;28;20099;-63
2021/09/08 10:13:51;;;;;;;1.08;0.05;;;;;;;20.95;48.98;101323.34;5053208;28;20031;-64
2021/09/08 10:16:16;;;;;;;0.60;0.25;;;;;;;20.90;48.80;101314.84;5053151;28;20025;-64
2021/09/08 10:18:42;;;;;;;0.55;0.00;;;;;;;20.92;48.95;101310.03;5053293;28;20539;-62
2021/09/08 10:21:11;;;;;;;0.10;0.10;;;;;;;20.90;48.40;101309.38;5052959;28;20505;-64
2021/09/08 10:23:43;;;;;;;0.43;0.10;;;;;;;20.93;48.97;101303.56;5052998;28;20029;-64
2021/09/08 10:26:16;;;;;;;0.28;0.15;;;;;;;20.97;48.89;101299.44;5052845;28;20496;-64
2021/09/08 10:28:42;;;;;;;0.20;0.10;;;;;;;20.92;48.36;101299.13;5053309;28;20029;-63
2021/09/08 10:31:09;;;;;;;0.10;0.10;;;;;;;20.93;48.50;101309.03;5052799;28;20043;-62
2021/09/08 10:33:40;;;;;;;0.30;0.03;;;;;;;20.89;48.44;101297.59;5072095;28;20079;-64
2021/09/08 10:36:09;;;;;;;0.65;0.10;;;;;;;20.88;48.59;101298.63;5061820;28;20029;-63
2021/09/08 10:38:34;;;;;;;0.65;0.17;;;;;;;20.91;49.20;101305.63;5052790;28;20028;-64
2021/09/08 10:41:03;;;;;;;0.47;0.10;;;;;;;20.95;48.84;101301.50;5052766;28;20461;-63
2021/09/08 10:43:35;;;;;;;0.22;0.10;;;;;;;20.91;48.62;101308.34;5052855;28;20044;-63
2021/09/08 10:46:02;;;;;;;0.20;0.00;;;;;;;20.95;49.07;101306.94;5052604;28;20072;-63
2021/09/08 10:48:41;;;;;;;0.40;0.10;;;;;;;20.94;48.83;101308.84;5035231;28;20044;-63
2021/09/08 10:51:39;;;;;;;0.20;0.00;;;;;;;20.94;49.17;101294.31;5052693;28;20044;-64
2021/09/08 10:54:06;;;;;;;0.10;0.00;;;;;;;20.92;48.53;101293.66;5052413;28;20501;-64
2021/09/08 10:56:43;;;;;;;0.10;0.10;;;;;;;20.89;48.59;101294.84;5052778;28;20608;-64
2021/09/08 10:59:08;;;;;;;0.20;0.10;;;;;;;20.89;48.94;101291.28;5052475;28;20032;-64
2021/09/08 11:01:33;;;;;;;0.30;0.13;;;;;;;20.89;49.14;101291.28;5052785;28;20029;-63
2021/09/08 11:03:59;;;;;;;0.20;0.20;;;;;;;20.93;49.27;101288.00;5052369;28;20025;-62
2021/09/08 11:06:39;;;;;;;0.98;0.10;;;;;;;20.92;48.56;101290.91;5052721;28;20040;-64
2021/09/08 11:09:07;;;;;;;0.10;0.00;;;;;;;20.94;48.66;101278.78;5054546;28;20040;-62
2021/09/08 11:11:33;;;;;;;1.05;0.10;;;;;;;20.93;49.16;101287.16;5056496;28;20104;-65
2021/09/08 11:13:59;;;;;;;0.20;0.10;;;;;;;20.94;49.16;101289.69;5056388;28;20121;-64
2021/09/08 11:16:30;;;;;;;0.60;0.10;;;;;;;20.95;48.60;101282.34;5056620;28;20035;-63
2021/09/08 11:18:58;;;;;;;0.10;0.10;;;;;;;20.90;48.51;101282.03;5056526;28;20111;-64
2021/09/08 11:21:29;;;;;;;0.20;0.00;;;;;;;20.93;49.07;101282.53;5056495;28;20032;-62